sensor_id;sensor_type;location;lat;lon;timestamp;P1;durP1;ratioP1;P2;durP2;ratioP2
73132;SDS011;61320;52.008;4.530;2023-03-12T00:00:19;11.59;;;11.59;;
73132;SDS011;61320;52.008;4.530;2023-03-12T00:02:45;12.11;;;12.11;;
73132;SDS011;61320;52.008;4.530;2023-03-12T00:05:11;11.67;;;11.66;;
73132;SDS011;61320;52.008;4.530;2023-03-12T00:07:36;11.81;;;11.80;;
73132;SDS011;61320;52.008;4.530;2023-03-12T00:10:03;12.06;;;12.06;;
73132;SDS011;61320;52.008;4.530;2023-03-12T00:12:29;11.77;;;11.77;;
73132;SDS011;61320;52.008;4.530;2023-03-12T00:14:55;11.89;;;11.89;;
73132;SDS011;61320;52.008;4.530;2023-03-12T00:17:20;11.89;;;11.89;;
73132;SDS011;61320;52.008;4.530;2023-03-12T00:19:49;11.73;;;11.73;;
73132;SDS011;61320;52.008;4.530;2023-03-12T00:22:15;11.50;;;11.50;;
73132;SDS011;61320;52.008;4.530;2023-03-12T00:24:41;11.18;;;11.18;;
73132;SDS011;61320;52.008;4.530;2023-03-12T00:27:06;11.07;;;11.07;;
73132;SDS011;61320;52.008;4.530;2023-03-12T00:29:32;11.50;;;11.50;;
73132;SDS011;61320;52.008;4.530;2023-03-12T00:31:57;11.25;;;11.25;;
73132;SDS011;61320;52.008;4.530;2023-03-12T00:34:22;11.08;;;11.08;;
73132;SDS011;61320;52.008;4.530;2023-03-12T00:36:48;11.25;;;11.24;;
73132;SDS011;61320;52.008;4.530;2023-03-12T00:39:14;10.89;;;10.89;;
73132;SDS011;61320;52.008;4.530;2023-03-12T00:41:39;10.57;;;10.57;;
73132;SDS011;61320;52.008;4.530;2023-03-12T00:44:13;10.32;;;10.32;;
73132;SDS011;61320;52.008;4.530;2023-03-12T00:46:38;10.46;;;10.46;;
73132;SDS011;61320;52.008;4.530;2023-03-12T00:49:03;9.66;;;9.66;;
73132;SDS011;61320;52.008;4.530;2023-03-12T00:51:29;9.77;;;9.77;;
73132;SDS011;61320;52.008;4.530;2023-03-12T00:53:55;9.05;;;9.05;;
73132;SDS011;61320;52.008;4.530;2023-03-12T00:56:20;8.79;;;8.78;;
73132;SDS011;61320;52.008;4.530;2023-03-12T00:58:45;8.58;;;8.58;;
73132;SDS011;61320;52.008;4.530;2023-03-12T01:01:11;7.86;;;7.85;;
73132;SDS011;61320;52.008;4.530;2023-03-12T01:03:37;6.92;;;6.92;;
73132;SDS011;61320;52.008;4.530;2023-03-12T01:06:02;6.71;;;6.71;;
73132;SDS011;61320;52.008;4.530;2023-03-12T01:08:30;6.79;;;6.77;;
73132;SDS011;61320;52.008;4.530;2023-03-12T01:10:55;5.95;;;5.94;;
73132;SDS011;61320;52.008;4.530;2023-03-12T01:13:21;5.99;;;5.99;;
73132;SDS011;61320;52.008;4.530;2023-03-12T01:15:46;6.43;;;6.43;;
73132;SDS011;61320;52.008;4.530;2023-03-12T01:18:12;6.08;;;6.08;;
73132;SDS011;61320;52.008;4.530;2023-03-12T01:20:38;6.47;;;6.47;;
73132;SDS011;61320;52.008;4.530;2023-03-12T01:23:05;6.13;;;6.13;;
73132;SDS011;61320;52.008;4.530;2023-03-12T01:25:30;6.31;;;6.31;;
73132;SDS011;61320;52.008;4.530;2023-03-12T01:27:58;6.77;;;6.77;;
73132;SDS011;61320;52.008;4.530;2023-03-12T01:30:24;6.49;;;6.49;;
73132;SDS011;61320;52.008;4.530;2023-03-12T01:32:51;6.96;;;6.96;;
73132;SDS011;61320;52.008;4.530;2023-03-12T01:35:16;6.77;;;6.77;;
73132;SDS011;61320;52.008;4.530;2023-03-12T01:37:42;6.78;;;6.78;;
73132;SDS011;61320;52.008;4.530;2023-03-12T01:40:11;6.83;;;6.83;;
73132;SDS011;61320;52.008;4.530;2023-03-12T01:42:40;6.44;;;6.43;;
73132;SDS011;61320;52.008;4.530;2023-03-12T01:45:06;6.55;;;6.53;;
73132;SDS011;61320;52.008;4.530;2023-03-12T01:48:09;6.70;;;6.70;;
73132;SDS011;61320;52.008;4.530;2023-03-12T01:50:35;6.25;;;6.25;;
73132;SDS011;61320;52.008;4.530;2023-03-12T01:53:01;6.22;;;6.22;;
73132;SDS011;61320;52.008;4.530;2023-03-12T01:55:26;6.49;;;6.49;;
73132;SDS011;61320;52.008;4.530;2023-03-12T01:57:52;6.20;;;6.20;;
73132;SDS011;61320;52.008;4.530;2023-03-12T02:00:23;5.81;;;5.81;;
73132;SDS011;61320;52.008;4.530;2023-03-12T02:02:51;6.33;;;6.33;;
73132;SDS011;61320;52.008;4.530;2023-03-12T02:05:28;6.66;;;6.66;;
73132;SDS011;61320;52.008;4.530;2023-03-12T02:08:03;6.72;;;6.72;;
73132;SDS011;61320;52.008;4.530;2023-03-12T02:10:29;6.50;;;6.50;;
73132;SDS011;61320;52.008;4.530;2023-03-12T02:12:54;6.70;;;6.69;;
73132;SDS011;61320;52.008;4.530;2023-03-12T02:15:20;6.60;;;6.60;;
73132;SDS011;61320;52.008;4.530;2023-03-12T02:17:46;6.55;;;6.55;;
73132;SDS011;61320;52.008;4.530;2023-03-12T02:20:13;6.76;;;6.75;;
73132;SDS011;61320;52.008;4.530;2023-03-12T02:23:05;6.77;;;6.77;;
73132;SDS011;61320;52.008;4.530;2023-03-12T02:25:40;6.79;;;6.79;;
73132;SDS011;61320;52.008;4.530;2023-03-12T02:28:14;6.92;;;6.92;;
73132;SDS011;61320;52.008;4.530;2023-03-12T02:30:46;7.14;;;7.14;;
73132;SDS011;61320;52.008;4.530;2023-03-12T02:33:15;6.55;;;6.53;;
73132;SDS011;61320;52.008;4.530;2023-03-12T02:35:41;6.83;;;6.83;;
73132;SDS011;61320;52.008;4.530;2023-03-12T02:40:57;6.74;;;6.73;;
73132;SDS011;61320;52.008;4.530;2023-03-12T02:43:35;6.88;;;6.87;;
73132;SDS011;61320;52.008;4.530;2023-03-12T02:46:01;7.27;;;7.26;;
73132;SDS011;61320;52.008;4.530;2023-03-12T02:48:27;6.58;;;6.58;;
73132;SDS011;61320;52.008;4.530;2023-03-12T02:50:52;6.91;;;6.91;;
73132;SDS011;61320;52.008;4.530;2023-03-12T02:53:18;6.97;;;6.97;;
73132;SDS011;61320;52.008;4.530;2023-03-12T02:55:43;7.17;;;7.17;;
73132;SDS011;61320;52.008;4.530;2023-03-12T02:58:09;6.78;;;6.77;;
73132;SDS011;61320;52.008;4.530;2023-03-12T03:00:34;7.04;;;7.03;;
73132;SDS011;61320;52.008;4.530;2023-03-12T03:03:02;6.87;;;6.87;;
73132;SDS011;61320;52.008;4.530;2023-03-12T03:05:28;7.06;;;7.06;;
73132;SDS011;61320;52.008;4.530;2023-03-12T03:07:53;7.22;;;7.22;;
73132;SDS011;61320;52.008;4.530;2023-03-12T03:10:19;7.24;;;7.21;;
73132;SDS011;61320;52.008;4.530;2023-03-12T03:12:44;7.28;;;7.27;;
73132;SDS011;61320;52.008;4.530;2023-03-12T03:15:10;7.40;;;7.40;;
73132;SDS011;61320;52.008;4.530;2023-03-12T03:17:37;7.27;;;7.27;;
73132;SDS011;61320;52.008;4.530;2023-03-12T03:20:03;7.44;;;7.44;;
73132;SDS011;61320;52.008;4.530;2023-03-12T03:22:32;7.58;;;7.58;;
73132;SDS011;61320;52.008;4.530;2023-03-12T03:24:58;7.66;;;7.65;;
73132;SDS011;61320;52.008;4.530;2023-03-12T03:27:23;7.92;;;7.89;;
73132;SDS011;61320;52.008;4.530;2023-03-12T03:29:49;7.62;;;7.62;;
73132;SDS011;61320;52.008;4.530;2023-03-12T03:32:14;7.83;;;7.83;;
73132;SDS011;61320;52.008;4.530;2023-03-12T03:34:40;7.74;;;7.74;;
73132;SDS011;61320;52.008;4.530;2023-03-12T03:37:06;7.75;;;7.75;;
73132;SDS011;61320;52.008;4.530;2023-03-12T03:39:31;7.61;;;7.61;;
73132;SDS011;61320;52.008;4.530;2023-03-12T03:41:58;7.44;;;7.43;;
73132;SDS011;61320;52.008;4.530;2023-03-12T03:44:23;7.60;;;7.60;;
73132;SDS011;61320;52.008;4.530;2023-03-12T03:46:49;7.30;;;7.30;;
73132;SDS011;61320;52.008;4.530;2023-03-12T03:49:15;7.51;;;7.51;;
73132;SDS011;61320;52.008;4.530;2023-03-12T03:51:41;6.92;;;6.92;;
73132;SDS011;61320;52.008;4.530;2023-03-12T03:54:07;7.30;;;7.30;;
73132;SDS011;61320;52.008;4.530;2023-03-12T03:56:33;7.57;;;7.54;;
73132;SDS011;61320;52.008;4.530;2023-03-12T03:58:59;7.20;;;7.19;;
73132;SDS011;61320;52.008;4.530;2023-03-12T04:01:26;7.48;;;7.47;;
73132;SDS011;61320;52.008;4.530;2023-03-12T04:03:52;7.22;;;7.21;;
73132;SDS011;61320;52.008;4.530;2023-03-12T04:06:17;7.44;;;7.43;;
73132;SDS011;61320;52.008;4.530;2023-03-12T04:08:44;7.30;;;7.30;;
73132;SDS011;61320;52.008;4.530;2023-03-12T04:11:14;7.55;;;7.55;;
73132;SDS011;61320;52.008;4.530;2023-03-12T04:13:44;7.51;;;7.50;;
73132;SDS011;61320;52.008;4.530;2023-03-12T04:16:10;7.68;;;7.68;;
73132;SDS011;61320;52.008;4.530;2023-03-12T04:18:37;7.89;;;7.89;;
73132;SDS011;61320;52.008;4.530;2023-03-12T04:21:03;7.94;;;7.94;;
73132;SDS011;61320;52.008;4.530;2023-03-12T04:23:31;8.12;;;8.10;;
73132;SDS011;61320;52.008;4.530;2023-03-12T04:25:57;8.96;;;8.96;;
73132;SDS011;61320;52.008;4.530;2023-03-12T04:28:23;9.07;;;9.07;;
73132;SDS011;61320;52.008;4.530;2023-03-12T04:30:55;9.60;;;9.60;;
73132;SDS011;61320;52.008;4.530;2023-03-12T04:33:24;9.51;;;9.49;;
73132;SDS011;61320;52.008;4.530;2023-03-12T04:35:53;9.78;;;9.78;;
73132;SDS011;61320;52.008;4.530;2023-03-12T04:38:20;10.08;;;10.08;;
73132;SDS011;61320;52.008;4.530;2023-03-12T04:40:46;10.61;;;10.61;;
73132;SDS011;61320;52.008;4.530;2023-03-12T04:43:12;10.86;;;10.86;;
73132;SDS011;61320;52.008;4.530;2023-03-12T04:45:38;10.53;;;10.53;;
73132;SDS011;61320;52.008;4.530;2023-03-12T04:48:04;10.62;;;10.62;;
73132;SDS011;61320;52.008;4.530;2023-03-12T04:50:30;10.97;;;10.97;;
73132;SDS011;61320;52.008;4.530;2023-03-12T04:52:55;10.95;;;10.95;;
73132;SDS011;61320;52.008;4.530;2023-03-12T04:55:21;11.37;;;11.37;;
73132;SDS011;61320;52.008;4.530;2023-03-12T04:57:47;11.26;;;11.26;;
73132;SDS011;61320;52.008;4.530;2023-03-12T05:00:12;11.66;;;11.66;;
73132;SDS011;61320;52.008;4.530;2023-03-12T05:02:38;11.30;;;11.30;;
73132;SDS011;61320;52.008;4.530;2023-03-12T05:05:05;12.26;;;12.26;;
73132;SDS011;61320;52.008;4.530;2023-03-12T05:07:32;11.45;;;11.45;;
73132;SDS011;61320;52.008;4.530;2023-03-12T05:09:58;11.76;;;11.76;;
73132;SDS011;61320;52.008;4.530;2023-03-12T05:12:24;11.17;;;11.17;;
73132;SDS011;61320;52.008;4.530;2023-03-12T05:14:50;10.92;;;10.92;;
73132;SDS011;61320;52.008;4.530;2023-03-12T05:17:15;11.61;;;11.61;;
73132;SDS011;61320;52.008;4.530;2023-03-12T05:19:41;12.10;;;12.10;;
73132;SDS011;61320;52.008;4.530;2023-03-12T05:22:06;12.18;;;12.18;;
73132;SDS011;61320;52.008;4.530;2023-03-12T05:24:32;12.14;;;12.13;;
73132;SDS011;61320;52.008;4.530;2023-03-12T05:26:57;12.29;;;12.29;;
73132;SDS011;61320;52.008;4.530;2023-03-12T05:29:22;12.43;;;12.43;;
73132;SDS011;61320;52.008;4.530;2023-03-12T05:31:48;12.31;;;12.31;;
73132;SDS011;61320;52.008;4.530;2023-03-12T05:34:13;12.29;;;12.29;;
73132;SDS011;61320;52.008;4.530;2023-03-12T05:36:39;12.45;;;12.45;;
73132;SDS011;61320;52.008;4.530;2023-03-12T05:39:05;12.90;;;12.87;;
73132;SDS011;61320;52.008;4.530;2023-03-12T05:41:30;13.13;;;13.13;;
73132;SDS011;61320;52.008;4.530;2023-03-12T05:43:56;13.71;;;13.71;;
73132;SDS011;61320;52.008;4.530;2023-03-12T05:46:23;13.50;;;13.50;;
73132;SDS011;61320;52.008;4.530;2023-03-12T05:48:50;13.44;;;13.44;;
73132;SDS011;61320;52.008;4.530;2023-03-12T05:51:16;13.65;;;13.65;;
73132;SDS011;61320;52.008;4.530;2023-03-12T05:53:41;13.41;;;13.41;;
73132;SDS011;61320;52.008;4.530;2023-03-12T05:56:09;13.94;;;13.94;;
73132;SDS011;61320;52.008;4.530;2023-03-12T05:58:37;14.32;;;14.32;;
73132;SDS011;61320;52.008;4.530;2023-03-12T06:01:09;14.11;;;14.11;;
73132;SDS011;61320;52.008;4.530;2023-03-12T06:03:37;14.75;;;14.75;;
73132;SDS011;61320;52.008;4.530;2023-03-12T06:06:02;15.07;;;15.07;;
73132;SDS011;61320;52.008;4.530;2023-03-12T06:08:28;14.66;;;14.66;;
73132;SDS011;61320;52.008;4.530;2023-03-12T06:10:53;15.09;;;15.09;;
73132;SDS011;61320;52.008;4.530;2023-03-12T06:13:20;14.63;;;14.63;;
73132;SDS011;61320;52.008;4.530;2023-03-12T06:15:46;15.31;;;15.31;;
73132;SDS011;61320;52.008;4.530;2023-03-12T06:18:12;15.89;;;15.89;;
73132;SDS011;61320;52.008;4.530;2023-03-12T06:20:38;15.03;;;15.03;;
73132;SDS011;61320;52.008;4.530;2023-03-12T06:23:03;15.17;;;15.17;;
73132;SDS011;61320;52.008;4.530;2023-03-12T06:25:29;14.95;;;14.95;;
73132;SDS011;61320;52.008;4.530;2023-03-12T06:27:54;15.39;;;15.39;;
73132;SDS011;61320;52.008;4.530;2023-03-12T06:30:20;14.50;;;14.50;;
73132;SDS011;61320;52.008;4.530;2023-03-12T06:32:45;14.30;;;14.30;;
73132;SDS011;61320;52.008;4.530;2023-03-12T06:35:11;14.22;;;14.22;;
73132;SDS011;61320;52.008;4.530;2023-03-12T06:37:36;13.76;;;13.76;;
73132;SDS011;61320;52.008;4.530;2023-03-12T06:40:02;13.89;;;13.89;;
73132;SDS011;61320;52.008;4.530;2023-03-12T06:42:29;13.96;;;13.96;;
73132;SDS011;61320;52.008;4.530;2023-03-12T06:44:54;13.54;;;13.54;;
73132;SDS011;61320;52.008;4.530;2023-03-12T06:47:20;13.39;;;13.39;;
73132;SDS011;61320;52.008;4.530;2023-03-12T06:49:45;14.04;;;14.04;;
73132;SDS011;61320;52.008;4.530;2023-03-12T06:52:14;13.74;;;13.74;;
73132;SDS011;61320;52.008;4.530;2023-03-12T06:54:43;13.84;;;13.84;;
73132;SDS011;61320;52.008;4.530;2023-03-12T06:57:08;14.55;;;14.55;;
73132;SDS011;61320;52.008;4.530;2023-03-12T06:59:34;14.22;;;14.22;;
73132;SDS011;61320;52.008;4.530;2023-03-12T07:01:59;14.53;;;14.53;;
73132;SDS011;61320;52.008;4.530;2023-03-12T07:04:25;14.52;;;14.52;;
73132;SDS011;61320;52.008;4.530;2023-03-12T07:06:52;14.47;;;14.47;;
73132;SDS011;61320;52.008;4.530;2023-03-12T07:09:18;15.03;;;15.03;;
73132;SDS011;61320;52.008;4.530;2023-03-12T07:11:43;15.30;;;15.30;;
73132;SDS011;61320;52.008;4.530;2023-03-12T07:14:09;15.52;;;15.52;;
73132;SDS011;61320;52.008;4.530;2023-03-12T07:16:35;16.08;;;16.08;;
73132;SDS011;61320;52.008;4.530;2023-03-12T07:19:00;16.40;;;16.40;;
73132;SDS011;61320;52.008;4.530;2023-03-12T07:21:25;16.35;;;16.35;;
73132;SDS011;61320;52.008;4.530;2023-03-12T07:23:51;16.12;;;16.12;;
73132;SDS011;61320;52.008;4.530;2023-03-12T07:26:17;16.53;;;16.53;;
73132;SDS011;61320;52.008;4.530;2023-03-12T07:28:44;17.08;;;17.08;;
73132;SDS011;61320;52.008;4.530;2023-03-12T07:31:09;17.11;;;17.11;;
73132;SDS011;61320;52.008;4.530;2023-03-12T07:33:35;17.76;;;17.76;;
73132;SDS011;61320;52.008;4.530;2023-03-12T07:36:01;18.36;;;18.35;;
73132;SDS011;61320;52.008;4.530;2023-03-12T07:38:28;18.33;;;18.33;;
73132;SDS011;61320;52.008;4.530;2023-03-12T07:40:54;18.55;;;18.55;;
73132;SDS011;61320;52.008;4.530;2023-03-12T07:43:22;19.23;;;19.23;;
73132;SDS011;61320;52.008;4.530;2023-03-12T07:45:49;20.46;;;20.46;;
73132;SDS011;61320;52.008;4.530;2023-03-12T07:48:15;20.72;;;20.72;;
73132;SDS011;61320;52.008;4.530;2023-03-12T07:50:43;21.61;;;21.61;;
73132;SDS011;61320;52.008;4.530;2023-03-12T07:53:09;22.61;;;22.59;;
73132;SDS011;61320;52.008;4.530;2023-03-12T07:55:35;24.41;;;24.41;;
73132;SDS011;61320;52.008;4.530;2023-03-12T07:58:01;24.41;;;24.41;;
73132;SDS011;61320;52.008;4.530;2023-03-12T08:00:27;25.43;;;25.41;;
73132;SDS011;61320;52.008;4.530;2023-03-12T08:02:54;27.15;;;27.13;;
73132;SDS011;61320;52.008;4.530;2023-03-12T08:05:19;29.18;;;28.53;;
73132;SDS011;61320;52.008;4.530;2023-03-12T08:07:49;28.18;;;27.86;;
73132;SDS011;61320;52.008;4.530;2023-03-12T08:10:18;29.05;;;28.73;;
73132;SDS011;61320;52.008;4.530;2023-03-12T08:12:45;30.17;;;29.78;;
73132;SDS011;61320;52.008;4.530;2023-03-12T08:15:12;31.86;;;31.86;;
73132;SDS011;61320;52.008;4.530;2023-03-12T08:17:38;35.15;;;34.72;;
73132;SDS011;61320;52.008;4.530;2023-03-12T08:20:05;35.72;;;34.86;;
73132;SDS011;61320;52.008;4.530;2023-03-12T08:22:37;36.70;;;36.05;;
73132;SDS011;61320;52.008;4.530;2023-03-12T08:25:03;37.14;;;36.79;;
73132;SDS011;61320;52.008;4.530;2023-03-12T08:27:29;38.45;;;37.44;;
73132;SDS011;61320;52.008;4.530;2023-03-12T08:29:55;38.30;;;37.92;;
73132;SDS011;61320;52.008;4.530;2023-03-12T08:32:20;40.35;;;39.26;;
73132;SDS011;61320;52.008;4.530;2023-03-12T08:34:46;40.91;;;39.62;;
73132;SDS011;61320;52.008;4.530;2023-03-12T08:37:11;38.34;;;37.45;;
73132;SDS011;61320;52.008;4.530;2023-03-12T08:39:37;38.86;;;37.75;;
73132;SDS011;61320;52.008;4.530;2023-03-12T08:42:02;37.42;;;36.67;;
73132;SDS011;61320;52.008;4.530;2023-03-12T08:44:29;37.62;;;36.78;;
73132;SDS011;61320;52.008;4.530;2023-03-12T08:46:55;37.42;;;36.60;;
73132;SDS011;61320;52.008;4.530;2023-03-12T08:49:21;37.35;;;36.43;;
73132;SDS011;61320;52.008;4.530;2023-03-12T08:51:49;36.80;;;35.55;;
73132;SDS011;61320;52.008;4.530;2023-03-12T08:54:16;34.36;;;33.80;;
73132;SDS011;61320;52.008;4.530;2023-03-12T08:56:42;35.88;;;35.05;;
73132;SDS011;61320;52.008;4.530;2023-03-12T08:59:09;35.42;;;34.26;;
73132;SDS011;61320;52.008;4.530;2023-03-12T09:01:35;34.10;;;33.40;;
73132;SDS011;61320;52.008;4.530;2023-03-12T09:04:02;32.05;;;31.87;;
73132;SDS011;61320;52.008;4.530;2023-03-12T09:06:28;30.90;;;30.55;;
73132;SDS011;61320;52.008;4.530;2023-03-12T09:08:53;29.74;;;28.93;;
73132;SDS011;61320;52.008;4.530;2023-03-12T09:11:19;27.35;;;27.16;;
73132;SDS011;61320;52.008;4.530;2023-03-12T09:13:44;24.46;;;24.38;;
73132;SDS011;61320;52.008;4.530;2023-03-12T09:16:10;22.48;;;22.48;;
73132;SDS011;61320;52.008;4.530;2023-03-12T09:18:35;20.90;;;20.77;;
73132;SDS011;61320;52.008;4.530;2023-03-12T09:21:01;17.25;;;17.19;;
73132;SDS011;61320;52.008;4.530;2023-03-12T09:23:27;16.22;;;16.21;;
73132;SDS011;61320;52.008;4.530;2023-03-12T09:25:53;14.93;;;14.85;;
73132;SDS011;61320;52.008;4.530;2023-03-12T09:28:19;13.51;;;13.50;;
73132;SDS011;61320;52.008;4.530;2023-03-12T09:30:45;12.10;;;12.09;;
73132;SDS011;61320;52.008;4.530;2023-03-12T09:33:11;11.06;;;10.87;;
73132;SDS011;61320;52.008;4.530;2023-03-12T09:35:39;10.41;;;9.64;;
73132;SDS011;61320;52.008;4.530;2023-03-12T09:38:05;10.93;;;10.03;;
73132;SDS011;61320;52.008;4.530;2023-03-12T09:40:31;10.07;;;9.14;;
73132;SDS011;61320;52.008;4.530;2023-03-12T09:43:10;10.13;;;9.11;;
73132;SDS011;61320;52.008;4.530;2023-03-12T09:45:45;10.25;;;8.96;;
73132;SDS011;61320;52.008;4.530;2023-03-12T09:48:13;10.91;;;9.24;;
73132;SDS011;61320;52.008;4.530;2023-03-12T09:50:48;11.80;;;9.85;;
73132;SDS011;61320;52.008;4.530;2023-03-12T09:55:54;11.57;;;9.39;;
73132;SDS011;61320;52.008;4.530;2023-03-12T09:58:31;11.82;;;9.45;;
73132;SDS011;61320;52.008;4.530;2023-03-12T10:06:18;12.67;;;9.64;;
73132;SDS011;61320;52.008;4.530;2023-03-12T10:11:39;13.56;;;10.15;;
73132;SDS011;61320;52.008;4.530;2023-03-12T10:22:59;15.82;;;11.18;;
73132;SDS011;61320;52.008;4.530;2023-03-12T10:25:33;16.37;;;11.42;;
73132;SDS011;61320;52.008;4.530;2023-03-12T10:28:16;15.72;;;10.89;;
73132;SDS011;61320;52.008;4.530;2023-03-12T10:30:50;18.04;;;12.13;;
73132;SDS011;61320;52.008;4.530;2023-03-12T10:33:21;19.15;;;12.41;;
73132;SDS011;61320;52.008;4.530;2023-03-12T10:36:00;20.38;;;13.11;;
73132;SDS011;61320;52.008;4.530;2023-03-12T10:38:26;18.42;;;12.03;;
73132;SDS011;61320;52.008;4.530;2023-03-12T10:40:54;19.66;;;12.86;;
73132;SDS011;61320;52.008;4.530;2023-03-12T10:43:20;18.83;;;12.26;;
73132;SDS011;61320;52.008;4.530;2023-03-12T10:45:48;19.81;;;13.04;;
73132;SDS011;61320;52.008;4.530;2023-03-12T10:48:34;17.75;;;11.65;;
73132;SDS011;61320;52.008;4.530;2023-03-12T10:53:35;17.61;;;11.65;;
73132;SDS011;61320;52.008;4.530;2023-03-12T10:56:10;18.60;;;12.28;;
73132;SDS011;61320;52.008;4.530;2023-03-12T11:03:48;16.99;;;11.45;;
73132;SDS011;61320;52.008;4.530;2023-03-12T11:06:23;17.63;;;11.58;;
73132;SDS011;61320;52.008;4.530;2023-03-12T11:09:04;16.91;;;11.10;;
73132;SDS011;61320;52.008;4.530;2023-03-12T11:11:41;17.34;;;11.35;;
73132;SDS011;61320;52.008;4.530;2023-03-12T11:16:34;19.04;;;12.08;;
73132;SDS011;61320;52.008;4.530;2023-03-12T11:19:01;22.29;;;14.06;;
73132;SDS011;61320;52.008;4.530;2023-03-12T11:21:28;20.92;;;13.18;;
73132;SDS011;61320;52.008;4.530;2023-03-12T11:26:22;20.77;;;13.19;;
73132;SDS011;61320;52.008;4.530;2023-03-12T11:34:38;19.91;;;12.73;;
73132;SDS011;61320;52.008;4.530;2023-03-12T11:38:05;21.16;;;13.59;;
73132;SDS011;61320;52.008;4.530;2023-03-12T11:40:12;21.11;;;13.48;;
73132;SDS011;61320;52.008;4.530;2023-03-12T11:43:03;21.84;;;13.65;;
73132;SDS011;61320;52.008;4.530;2023-03-12T12:16:56;28.04;;;16.95;;
73132;SDS011;61320;52.008;4.530;2023-03-12T12:22:09;25.48;;;15.41;;
73132;SDS011;61320;52.008;4.530;2023-03-12T12:27:32;23.92;;;14.71;;
73132;SDS011;61320;52.008;4.530;2023-03-12T12:35:56;25.24;;;15.26;;
73132;SDS011;61320;52.008;4.530;2023-03-12T12:43:35;23.96;;;14.62;;
73132;SDS011;61320;52.008;4.530;2023-03-12T12:46:04;22.85;;;14.25;;
73132;SDS011;61320;52.008;4.530;2023-03-12T12:48:39;24.56;;;15.18;;
73132;SDS011;61320;52.008;4.530;2023-03-12T12:51:08;25.87;;;15.67;;
73132;SDS011;61320;52.008;4.530;2023-03-12T12:53:37;23.97;;;14.71;;
73132;SDS011;61320;52.008;4.530;2023-03-12T12:56:37;24.14;;;14.61;;
73132;SDS011;61320;52.008;4.530;2023-03-12T13:01:49;25.24;;;15.12;;
73132;SDS011;61320;52.008;4.530;2023-03-12T13:04:26;24.36;;;14.67;;
73132;SDS011;61320;52.008;4.530;2023-03-12T13:07:39;23.44;;;14.27;;
73132;SDS011;61320;52.008;4.530;2023-03-12T13:09:47;24.12;;;14.70;;
73132;SDS011;61320;52.008;4.530;2023-03-12T13:12:24;24.69;;;14.84;;
73132;SDS011;61320;52.008;4.530;2023-03-12T13:14:57;24.64;;;14.74;;
73132;SDS011;61320;52.008;4.530;2023-03-12T13:17:29;26.11;;;15.52;;
73132;SDS011;61320;52.008;4.530;2023-03-12T13:28:31;23.64;;;14.23;;
73132;SDS011;61320;52.008;4.530;2023-03-12T13:31:01;24.93;;;14.94;;
73132;SDS011;61320;52.008;4.530;2023-03-12T13:33:47;24.60;;;14.53;;
73132;SDS011;61320;52.008;4.530;2023-03-12T13:36:19;25.34;;;15.11;;
73132;SDS011;61320;52.008;4.530;2023-03-12T13:38:58;25.39;;;15.08;;
73132;SDS011;61320;52.008;4.530;2023-03-12T13:41:32;23.77;;;14.31;;
73132;SDS011;61320;52.008;4.530;2023-03-12T13:43:59;25.30;;;15.06;;
73132;SDS011;61320;52.008;4.530;2023-03-12T13:46:45;25.54;;;15.15;;
73132;SDS011;61320;52.008;4.530;2023-03-12T13:49:11;24.35;;;14.50;;
73132;SDS011;61320;52.008;4.530;2023-03-12T13:51:51;23.41;;;13.90;;
73132;SDS011;61320;52.008;4.530;2023-03-12T13:54:22;24.95;;;14.72;;
73132;SDS011;61320;52.008;4.530;2023-03-12T13:56:58;24.64;;;14.58;;
73132;SDS011;61320;52.008;4.530;2023-03-12T13:59:27;24.64;;;14.47;;
73132;SDS011;61320;52.008;4.530;2023-03-12T14:01:59;23.77;;;14.18;;
73132;SDS011;61320;52.008;4.530;2023-03-12T14:04:32;22.68;;;13.69;;
73132;SDS011;61320;52.008;4.530;2023-03-12T14:10:07;25.01;;;14.81;;
73132;SDS011;61320;52.008;4.530;2023-03-12T14:15:29;23.47;;;13.82;;
73132;SDS011;61320;52.008;4.530;2023-03-12T14:18:28;23.62;;;13.90;;
73132;SDS011;61320;52.008;4.530;2023-03-12T14:20:58;22.58;;;13.64;;
73132;SDS011;61320;52.008;4.530;2023-03-12T14:23:29;22.90;;;13.96;;
73132;SDS011;61320;52.008;4.530;2023-03-12T14:26:02;23.26;;;14.19;;
73132;SDS011;61320;52.008;4.530;2023-03-12T14:28:30;24.09;;;14.72;;
73132;SDS011;61320;52.008;4.530;2023-03-12T14:31:04;24.58;;;15.15;;
73132;SDS011;61320;52.008;4.530;2023-03-12T14:33:52;24.60;;;15.46;;
73132;SDS011;61320;52.008;4.530;2023-03-12T14:36:28;23.05;;;14.49;;
73132;SDS011;61320;52.008;4.530;2023-03-12T14:39:10;23.67;;;14.66;;
73132;SDS011;61320;52.008;4.530;2023-03-12T14:41:52;25.13;;;15.31;;
73132;SDS011;61320;52.008;4.530;2023-03-12T14:44:25;24.72;;;15.32;;
73132;SDS011;61320;52.008;4.530;2023-03-12T14:47:01;26.09;;;16.43;;
73132;SDS011;61320;52.008;4.530;2023-03-12T14:49:39;21.96;;;13.66;;
73132;SDS011;61320;52.008;4.530;2023-03-12T14:52:13;25.59;;;15.47;;
73132;SDS011;61320;52.008;4.530;2023-03-12T14:54:56;24.67;;;14.82;;
73132;SDS011;61320;52.008;4.530;2023-03-12T14:57:24;26.02;;;15.61;;
73132;SDS011;61320;52.008;4.530;2023-03-12T14:59:51;27.34;;;16.26;;
73132;SDS011;61320;52.008;4.530;2023-03-12T15:02:18;28.41;;;16.64;;
73132;SDS011;61320;52.008;4.530;2023-03-12T15:04:45;30.33;;;17.65;;
73132;SDS011;61320;52.008;4.530;2023-03-12T15:07:14;28.00;;;16.41;;
73132;SDS011;61320;52.008;4.530;2023-03-12T15:09:46;29.80;;;17.35;;
73132;SDS011;61320;52.008;4.530;2023-03-12T15:12:20;30.38;;;17.63;;
73132;SDS011;61320;52.008;4.530;2023-03-12T15:14:49;27.90;;;16.54;;
73132;SDS011;61320;52.008;4.530;2023-03-12T15:17:19;30.45;;;18.16;;
73132;SDS011;61320;52.008;4.530;2023-03-12T15:19:48;29.15;;;17.45;;
73132;SDS011;61320;52.008;4.530;2023-03-12T15:22:18;26.53;;;16.17;;
73132;SDS011;61320;52.008;4.530;2023-03-12T15:24:48;27.57;;;16.66;;
73132;SDS011;61320;52.008;4.530;2023-03-12T15:29:55;27.52;;;16.29;;
73132;SDS011;61320;52.008;4.530;2023-03-12T15:32:23;29.33;;;17.50;;
73132;SDS011;61320;52.008;4.530;2023-03-12T15:34:50;27.17;;;16.55;;
73132;SDS011;61320;52.008;4.530;2023-03-12T15:40:01;23.75;;;14.54;;
73132;SDS011;61320;52.008;4.530;2023-03-12T15:42:37;28.31;;;16.79;;
73132;SDS011;61320;52.008;4.530;2023-03-12T15:45:17;26.82;;;15.91;;
73132;SDS011;61320;52.008;4.530;2023-03-12T15:48:04;27.27;;;16.09;;
73132;SDS011;61320;52.008;4.530;2023-03-12T15:50:50;25.41;;;15.23;;
73132;SDS011;61320;52.008;4.530;2023-03-12T15:55:41;25.75;;;15.39;;
73132;SDS011;61320;52.008;4.530;2023-03-12T15:58:23;26.28;;;15.70;;
73132;SDS011;61320;52.008;4.530;2023-03-12T16:03:38;28.60;;;16.97;;
73132;SDS011;61320;52.008;4.530;2023-03-12T16:06:12;27.43;;;16.55;;
73132;SDS011;61320;52.008;4.530;2023-03-12T16:08:45;26.03;;;15.92;;
73132;SDS011;61320;52.008;4.530;2023-03-12T16:11:24;27.06;;;16.16;;
73132;SDS011;61320;52.008;4.530;2023-03-12T16:16:43;29.47;;;17.67;;
73132;SDS011;61320;52.008;4.530;2023-03-12T16:19:10;30.21;;;18.06;;
73132;SDS011;61320;52.008;4.530;2023-03-12T16:21:40;30.53;;;18.25;;
73132;SDS011;61320;52.008;4.530;2023-03-12T16:24:06;29.48;;;17.77;;
73132;SDS011;61320;52.008;4.530;2023-03-12T16:26:35;31.48;;;19.27;;
73132;SDS011;61320;52.008;4.530;2023-03-12T16:29:12;30.98;;;18.95;;
73132;SDS011;61320;52.008;4.530;2023-03-12T16:31:41;33.63;;;19.95;;
73132;SDS011;61320;52.008;4.530;2023-03-12T16:34:10;33.54;;;19.89;;
73132;SDS011;61320;52.008;4.530;2023-03-12T16:36:36;32.57;;;19.36;;